createdAt,value
2019-03-16T00:01:00.410Z,25.77
2019-03-16T00:03:45.178Z,25.50
2019-03-16T00:06:29.512Z,35.37
2019-03-16T00:09:13.246Z,30.20
2019-03-16T00:11:56.896Z,23.93
2019-03-16T00:14:29.375Z,30.20
2019-03-16T00:17:23.306Z,28.70
2019-03-16T00:19:59.498Z,25.93
2019-03-16T00:22:43.711Z,16.67
2019-03-16T00:25:28.855Z,27.07
2019-03-16T00:28:13.291Z,23.55
2019-03-16T00:30:56.807Z,25.60
2019-03-16T00:33:40.488Z,30.70
2019-03-16T00:36:24.581Z,27.13
2019-03-16T00:39:09.480Z,23.53
2019-03-16T00:41:54.815Z,37.53
2019-03-16T00:44:38.395Z,23.30
2019-03-16T00:47:22.951Z,25.07
2019-03-16T00:50:07.380Z,20.30
2019-03-16T00:52:50.981Z,25.70
2019-03-16T00:55:35.450Z,28.77
2019-03-16T00:58:19.764Z,26.05
2019-03-16T01:01:05.124Z,38.23
2019-03-16T01:03:48.714Z,28.13
2019-03-16T01:06:32.587Z,25.90
2019-03-16T01:09:16.487Z,26.63
2019-03-16T01:11:48.727Z,26.87
2019-03-16T01:14:34.392Z,23.70
2019-03-16T01:17:18.756Z,26.33
2019-03-16T01:20:03.692Z,23.77
2019-03-16T01:22:35.847Z,23.17
2019-03-16T01:25:19.408Z,33.17
2019-03-16T01:28:02.977Z,28.47
2019-03-16T01:30:46.596Z,29.03
2019-03-16T01:33:30.825Z,24.33
2019-03-16T01:36:03.044Z,22.27
2019-03-16T01:38:47.458Z,26.80
2019-03-16T01:41:32.506Z,27.93
2019-03-16T01:44:18.308Z,20.47
2019-03-16T01:46:50.504Z,25.37
2019-03-16T01:49:34.777Z,28.27
2019-03-16T01:52:19.728Z,22.82
2019-03-16T01:55:04.043Z,28.57
2019-03-16T01:57:47.984Z,24.77
2019-03-16T02:00:32.364Z,26.23
2019-03-16T02:03:17.443Z,26.17
2019-03-16T02:06:00.965Z,25.93
2019-03-16T02:08:33.627Z,26.90
2019-03-16T02:11:17.656Z,24.57
2019-03-16T02:14:02.907Z,20.00
2019-03-16T02:19:50.049Z,27.43
2019-03-16T02:22:35.493Z,25.10
2019-03-16T02:25:19.498Z,27.20
2019-03-16T02:28:04.099Z,25.73
2019-03-16T02:30:48.527Z,28.05
2019-03-16T02:33:32.180Z,23.83
2019-03-16T02:36:17.099Z,33.33
2019-03-16T02:39:01.702Z,24.90
2019-03-16T02:41:47.172Z,35.97
2019-03-16T02:44:30.871Z,32.33
2019-03-16T02:47:15.434Z,23.77
2019-03-16T02:49:59.035Z,24.67
2019-03-16T02:52:43.278Z,25.47
2019-03-16T02:55:27.380Z,26.85
2019-03-16T02:57:59.944Z,28.05
2019-03-16T03:00:45.487Z,21.93
2019-03-16T03:03:30.342Z,25.23
2019-03-16T03:06:14.542Z,25.10
2019-03-16T03:08:58.845Z,31.00
2019-03-16T03:11:46.813Z,27.00
2019-03-16T03:14:31.905Z,28.25
2019-03-16T03:17:16.348Z,25.60
2019-03-16T03:19:49.334Z,23.95
2019-03-16T03:22:33.634Z,21.37
2019-03-16T03:25:17.805Z,25.03
2019-03-16T03:28:02.517Z,23.23
2019-03-16T03:30:47.891Z,19.73
2019-03-16T03:33:57.573Z,35.93
2019-03-16T03:36:18.879Z,28.20
2019-03-16T03:39:03.278Z,24.85
2019-03-16T03:41:47.919Z,27.93
2019-03-16T03:44:33.014Z,30.95
2019-03-16T03:47:18.221Z,30.07
2019-03-16T03:50:04.720Z,25.23
2019-03-16T03:52:49.600Z,30.83
2019-03-16T03:55:33.340Z,25.83
2019-03-16T03:58:16.953Z,28.27
2019-03-16T04:01:00.841Z,24.02
2019-03-16T04:03:46.351Z,33.23
2019-03-16T04:06:30.645Z,23.03
2019-03-16T04:09:14.633Z,27.13
2019-03-16T04:11:58.131Z,27.60
2019-03-16T04:14:43.810Z,30.10
2019-03-16T04:17:17.141Z,26.87
2019-03-16T04:19:49.880Z,25.23
2019-03-16T04:28:43.152Z,27.40
2019-03-16T04:31:26.709Z,29.37
2019-03-16T04:34:11.889Z,27.93
2019-03-16T04:36:56.824Z,22.33
2019-03-16T04:39:41.738Z,23.80
2019-03-16T04:42:26.287Z,25.33
2019-03-16T04:45:11.447Z,28.83
2019-03-16T04:47:54.985Z,26.90
2019-03-16T04:50:39.081Z,23.70
2019-03-16T04:53:11.278Z,24.13
2019-03-16T04:55:55.587Z,29.37
2019-03-16T04:58:39.476Z,19.40
2019-03-16T05:01:25.094Z,24.97
2019-03-16T05:04:09.121Z,27.27
2019-03-16T05:06:55.288Z,23.90
2019-03-16T05:09:41.038Z,24.47
2019-03-16T05:12:24.779Z,26.20
2019-03-16T05:15:09.639Z,28.73
2019-03-16T05:17:55.606Z,21.73
2019-03-16T05:20:39.423Z,17.40
2019-03-16T05:23:23.001Z,26.33
2019-03-16T05:26:06.854Z,28.43
2019-03-16T05:28:50.435Z,26.07
2019-03-16T05:31:34.823Z,25.73
2019-03-16T05:34:18.850Z,19.83
2019-03-16T05:37:03.259Z,21.20
2019-03-16T05:39:47.351Z,20.50
2019-03-16T05:42:32.695Z,26.27
2019-03-16T05:45:20.176Z,24.70
2019-03-16T05:48:04.724Z,16.80
2019-03-16T05:50:53.892Z,25.10
2019-03-16T05:53:38.575Z,17.30
2019-03-16T05:56:12.092Z,19.93
2019-03-16T06:02:01.956Z,23.43
2019-03-16T06:04:46.578Z,21.07
2019-03-16T06:07:30.850Z,25.43
2019-03-16T06:10:15.598Z,21.43
2019-03-16T06:13:03.555Z,19.80
2019-03-16T06:15:36.036Z,19.23
2019-03-16T06:18:26.871Z,26.65
2019-03-16T06:21:32.976Z,24.87
2019-03-16T06:24:21.297Z,21.50
2019-03-16T06:27:06.389Z,18.70
2019-03-16T06:29:50.663Z,25.88
2019-03-16T06:32:34.407Z,16.93
2019-03-16T06:35:24.898Z,19.30
2019-03-16T06:38:04.108Z,19.47
2019-03-16T06:40:48.086Z,20.20
2019-03-16T06:43:33.633Z,16.77
2019-03-16T06:46:17.779Z,23.73
2019-03-16T06:49:02.142Z,17.20
2019-03-16T06:51:46.409Z,22.07
2019-03-16T06:54:30.769Z,15.50
2019-03-16T06:57:14.967Z,18.57
2019-03-16T06:59:59.415Z,15.77
2019-03-16T07:02:43.362Z,26.05
2019-03-16T07:05:38.408Z,22.00
2019-03-16T07:08:29.681Z,18.53
2019-03-16T07:11:13.689Z,20.87
2019-03-16T07:13:57.954Z,31.87
2019-03-16T07:16:42.008Z,18.97
2019-03-16T07:19:25.353Z,15.60
2019-03-16T07:22:08.989Z,21.40
2019-03-16T07:24:58.891Z,22.52
2019-03-16T07:27:31.605Z,20.52
2019-03-16T07:30:16.087Z,15.32
2019-03-16T07:32:59.893Z,15.00
2019-03-16T07:38:28.484Z,25.87
2019-03-16T07:41:12.652Z,18.43
2019-03-16T07:43:44.884Z,19.70
2019-03-16T07:46:28.870Z,24.15
2019-03-16T07:49:14.640Z,24.73
2019-03-16T07:51:58.311Z,21.63
2019-03-16T07:54:42.302Z,17.53
2019-03-16T07:57:39.556Z,24.17
2019-03-16T08:00:13.060Z,20.83
2019-03-16T08:02:58.161Z,21.83
2019-03-16T08:05:42.154Z,20.60
2019-03-16T08:08:28.532Z,20.70
2019-03-16T08:11:13.250Z,20.80
2019-03-16T08:13:56.740Z,15.93
2019-03-16T08:16:41.441Z,15.90
2019-03-16T08:19:25.489Z,22.40
2019-03-16T08:22:10.571Z,18.30
2019-03-16T08:24:59.074Z,24.27
2019-03-16T08:27:53.658Z,22.73
2019-03-16T08:30:29.539Z,24.07
2019-03-16T08:33:01.627Z,17.20
2019-03-16T08:35:45.468Z,16.60
2019-03-16T08:38:17.641Z,24.92
2019-03-16T08:41:03.508Z,18.37
2019-03-16T08:43:47.341Z,17.37
2019-03-16T08:46:32.741Z,18.00
2019-03-16T08:49:16.569Z,25.03
2019-03-16T08:52:00.531Z,16.13
2019-03-16T08:54:46.248Z,20.03
2019-03-16T08:57:30.376Z,14.67
2019-03-16T09:00:15.820Z,18.92
2019-03-16T09:02:59.482Z,11.00
2019-03-16T09:05:44.960Z,14.50
2019-03-16T09:08:29.424Z,13.83
2019-03-16T09:11:13.270Z,12.50
2019-03-16T09:13:57.180Z,12.17
2019-03-16T09:16:29.298Z,8.90
2019-03-16T09:19:13.929Z,13.87
2019-03-16T09:21:58.104Z,13.43
2019-03-16T09:24:42.643Z,19.87
2019-03-16T09:27:31.382Z,14.90
2019-03-16T09:30:15.642Z,14.80
2019-03-16T09:32:59.990Z,8.60
2019-03-16T09:35:44.683Z,11.33
2019-03-16T09:38:29.363Z,12.00
2019-03-16T09:41:13.988Z,13.10
2019-03-16T09:43:58.273Z,9.93
2019-03-16T09:46:43.838Z,9.93
2019-03-16T09:49:28.078Z,11.90
2019-03-16T09:52:16.045Z,9.53
2019-03-16T09:55:01.340Z,8.58
2019-03-16T09:57:46.107Z,9.40
2019-03-16T10:00:30.361Z,7.20
2019-03-16T10:03:16.914Z,8.47
2019-03-16T10:06:01.324Z,10.83
2019-03-16T10:08:45.665Z,7.73
2019-03-16T10:11:29.894Z,7.60
2019-03-16T10:14:02.092Z,3.90
2019-03-16T10:16:59.731Z,5.60
2019-03-16T10:19:31.962Z,6.53
2019-03-16T10:22:15.424Z,4.50
2019-03-16T10:24:59.230Z,5.75
2019-03-16T10:27:42.680Z,5.27
2019-03-16T10:30:29.186Z,4.33
2019-03-16T10:33:13.554Z,3.83
2019-03-16T10:35:57.438Z,5.75
2019-03-16T10:38:41.795Z,2.73
2019-03-16T10:41:25.672Z,5.50
2019-03-16T10:44:09.134Z,3.33
2019-03-16T10:46:55.094Z,5.45
2019-03-16T10:49:39.586Z,5.30
2019-03-16T10:52:23.599Z,5.37
2019-03-16T10:55:07.716Z,7.57
2019-03-16T10:57:52.152Z,5.97
2019-03-16T11:00:35.831Z,7.10
2019-03-16T11:03:20.065Z,7.67
2019-03-16T11:06:05.425Z,7.27
2019-03-16T11:08:48.815Z,8.10
2019-03-16T11:11:21.052Z,7.23
2019-03-16T11:14:07.085Z,10.73
2019-03-16T11:16:51.393Z,12.23
2019-03-16T11:19:35.672Z,10.10
2019-03-16T11:22:19.455Z,9.00
2019-03-16T11:25:03.645Z,9.27
2019-03-16T11:30:51.682Z,6.13
2019-03-16T11:33:37.370Z,8.53
2019-03-16T11:39:40.477Z,16.43
2019-03-16T11:42:24.994Z,10.33
2019-03-16T11:48:18.229Z,11.07
2019-03-16T11:57:21.479Z,11.03
2019-03-16T12:06:28.067Z,6.15
2019-03-16T12:15:27.765Z,7.17
2019-03-16T12:24:38.848Z,7.40
2019-03-16T12:27:11.057Z,8.83
2019-03-16T12:33:05.649Z,8.63
2019-03-16T12:35:37.871Z,4.73
2019-03-16T12:38:22.062Z,6.07
2019-03-16T12:41:05.717Z,6.10
2019-03-16T12:43:49.634Z,5.95
2019-03-16T12:46:34.135Z,8.77
2019-03-16T12:49:17.951Z,6.83
2019-03-16T12:52:02.285Z,5.37
2019-03-16T12:54:46.668Z,6.62
2019-03-16T12:57:32.438Z,8.63
2019-03-16T13:00:16.857Z,4.93
2019-03-16T13:03:00.964Z,5.13
2019-03-16T13:05:45.367Z,5.47
2019-03-16T13:08:31.617Z,6.65
2019-03-16T13:11:16.382Z,7.33
2019-03-16T13:14:00.952Z,5.73
2019-03-16T13:16:48.695Z,3.87
2019-03-16T13:19:34.505Z,3.27
2019-03-16T13:22:18.030Z,5.63
2019-03-16T13:25:02.615Z,4.97
2019-03-16T13:27:46.618Z,5.43
2019-03-16T13:30:30.869Z,6.80
2019-03-16T13:33:03.196Z,6.47
2019-03-16T13:35:47.669Z,8.33
2019-03-16T13:38:31.261Z,6.63
2019-03-16T13:41:18.011Z,6.62
2019-03-16T13:47:19.761Z,8.17
2019-03-16T13:50:05.485Z,9.80
2019-03-16T13:52:49.667Z,10.15
2019-03-16T13:55:34.040Z,10.57
2019-03-16T13:58:18.035Z,10.37
2019-03-16T14:00:50.365Z,14.23
2019-03-16T14:03:47.982Z,13.23
2019-03-16T14:06:36.399Z,21.27
2019-03-16T14:09:21.178Z,13.98
2019-03-16T14:15:22.747Z,17.63
2019-03-16T14:21:15.513Z,23.80
2019-03-16T14:26:50.718Z,24.23
2019-03-16T14:29:35.964Z,17.90
2019-03-16T14:32:19.597Z,22.83
2019-03-16T14:35:03.846Z,18.13
2019-03-16T14:37:47.693Z,20.40
2019-03-16T14:40:32.348Z,19.23
2019-03-16T14:43:16.183Z,19.80
2019-03-16T14:46:00.559Z,22.67
2019-03-16T14:48:44.626Z,17.82
2019-03-16T14:51:32.618Z,18.33
2019-03-16T14:54:17.656Z,20.23
2019-03-16T14:57:02.079Z,22.50
2019-03-16T14:59:46.111Z,25.97
2019-03-16T15:02:30.936Z,27.07
2019-03-16T15:08:13.711Z,24.10
2019-03-16T15:10:57.815Z,23.57
2019-03-16T15:13:41.569Z,21.13
2019-03-16T15:16:26.143Z,18.03
2019-03-16T15:19:12.696Z,18.30
2019-03-16T15:21:57.718Z,16.83
2019-03-16T15:24:43.743Z,18.90
2019-03-16T15:27:34.103Z,20.77
2019-03-16T15:30:22.285Z,20.23
2019-03-16T15:32:55.051Z,18.73
2019-03-16T15:45:18.094Z,21.43
2019-03-16T15:51:16.455Z,16.80
2019-03-16T15:54:02.042Z,17.97
2019-03-16T16:03:09.278Z,21.20
2019-03-16T16:06:13.668Z,15.87
2019-03-16T16:12:10.834Z,13.80
2019-03-16T16:14:43.467Z,9.67
2019-03-16T16:20:38.104Z,16.90
2019-03-16T16:33:10.328Z,13.20
2019-03-16T16:35:55.826Z,14.23
2019-03-16T16:38:39.845Z,13.13
2019-03-16T16:44:29.099Z,16.83
2019-03-16T16:47:16.910Z,18.55
2019-03-16T16:50:07.122Z,21.37
2019-03-16T17:05:24.524Z,19.57
2019-03-16T17:08:08.702Z,16.30
2019-03-16T17:10:42.562Z,16.07
2019-03-16T17:16:43.852Z,13.57
2019-03-16T17:19:41.627Z,13.10
2019-03-16T17:22:32.100Z,13.17
2019-03-16T17:28:30.025Z,12.33
2019-03-16T17:31:14.145Z,10.63
2019-03-16T17:37:04.542Z,7.60
2019-03-16T17:43:05.684Z,13.08
2019-03-16T17:45:49.365Z,9.20
2019-03-16T17:51:52.393Z,10.57
2019-03-16T17:54:36.091Z,10.77
2019-03-16T17:57:20.381Z,8.90
2019-03-16T18:00:04.070Z,11.30
2019-03-16T18:02:52.641Z,10.40
2019-03-16T18:05:34.227Z,7.50
2019-03-16T18:08:18.492Z,12.37
2019-03-16T18:11:02.335Z,11.20
2019-03-16T18:13:34.620Z,10.80
2019-03-16T18:16:18.889Z,10.53
2019-03-16T18:19:02.953Z,10.08
2019-03-16T18:21:46.776Z,12.60
2019-03-16T18:24:31.035Z,7.27
2019-03-16T18:27:15.484Z,8.35
2019-03-16T18:29:59.570Z,6.67
2019-03-16T18:32:43.113Z,8.80
2019-03-16T18:35:28.575Z,13.60
2019-03-16T18:38:14.217Z,9.93
2019-03-16T18:40:58.135Z,13.03
2019-03-16T18:46:47.985Z,10.93
2019-03-16T18:49:32.582Z,10.00
2019-03-16T18:52:16.019Z,8.43
2019-03-16T18:54:48.158Z,8.73
2019-03-16T19:00:49.249Z,8.77
2019-03-16T19:06:34.446Z,8.83
2019-03-16T19:09:20.706Z,7.75
2019-03-16T19:18:29.383Z,10.37
2019-03-16T19:27:31.277Z,9.77
2019-03-16T19:33:30.917Z,8.73
2019-03-16T19:39:26.519Z,7.30
2019-03-16T19:42:10.930Z,7.87
2019-03-16T19:44:55.393Z,8.87
2019-03-16T19:47:39.703Z,8.83
2019-03-16T19:50:23.662Z,8.77
2019-03-16T19:53:09.738Z,6.87
2019-03-16T19:55:54.244Z,7.37
2019-03-16T19:58:45.208Z,9.83
2019-03-16T20:01:29.987Z,11.57
2019-03-16T20:04:02.258Z,9.90
2019-03-16T20:06:46.294Z,8.10
2019-03-16T20:09:30.770Z,10.87
2019-03-16T20:12:14.527Z,8.03
2019-03-16T20:18:15.506Z,9.90
2019-03-16T20:20:59.905Z,8.07
2019-03-16T20:26:59.763Z,8.53
2019-03-16T20:29:43.653Z,8.53
2019-03-16T20:32:28.382Z,6.77
2019-03-16T20:35:12.062Z,7.30
2019-03-16T20:37:55.803Z,8.27
2019-03-16T20:40:40.071Z,9.73
2019-03-16T20:43:13.068Z,8.35
2019-03-16T20:45:57.377Z,11.50
2019-03-16T20:51:51.808Z,6.07
2019-03-16T20:54:36.329Z,14.43
2019-03-16T20:57:50.163Z,9.97
2019-03-16T21:00:39.766Z,7.83
2019-03-16T21:03:27.865Z,10.53
2019-03-16T21:06:12.817Z,8.10
2019-03-16T21:11:59.483Z,7.47
2019-03-16T21:14:44.074Z,9.20
2019-03-16T21:17:28.565Z,8.93
2019-03-16T21:20:12.595Z,11.30
2019-03-16T21:22:45.053Z,7.27
2019-03-16T21:28:35.002Z,11.53
2019-03-16T21:31:25.132Z,10.87
2019-03-16T21:34:09.380Z,11.70
2019-03-16T21:36:53.304Z,10.33
2019-03-16T21:39:40.385Z,10.63
2019-03-16T21:42:30.913Z,12.23
2019-03-16T21:45:15.455Z,14.43
2019-03-16T21:47:59.448Z,16.30
2019-03-16T21:50:44.022Z,9.87
2019-03-16T21:53:35.064Z,13.10
2019-03-16T22:08:46.809Z,12.83
2019-03-16T22:14:26.857Z,14.83
2019-03-16T22:17:17.524Z,9.78
2019-03-16T22:20:07.544Z,10.13
2019-03-16T22:22:52.377Z,11.77
2019-03-16T22:28:43.374Z,12.60
2019-03-16T22:31:27.848Z,8.97
2019-03-16T22:34:11.916Z,9.20
2019-03-16T22:37:01.790Z,11.67
2019-03-16T22:40:11.977Z,12.25
2019-03-16T22:55:40.826Z,11.57
2019-03-16T22:58:31.074Z,11.00
2019-03-16T23:08:05.877Z,8.07
2019-03-16T23:10:53.724Z,9.77
2019-03-16T23:23:12.057Z,11.97
2019-03-16T23:32:51.576Z,9.97
2019-03-16T23:39:20.659Z,7.40
2019-03-16T23:45:23.230Z,11.07
2019-03-16T23:55:08.110Z,10.00
